Yankton, SD (57078)

14:54 CDT le 31 octobre 2014 (GMT -0500)
Gurney Municipal | Change Station
CLOSE
Current Station
Aéroport
Location: Yankton,
Altitude: 1306 ft
Stations météo à proximité

Alt. 1306 ft 42.92 °N, 97.39 °W | Updated 19 minutes ago

Clear
Ciel dégagé
37 ° F
Paraît 37 ° F
N
0
Vent Variable Vent de Nord

Aujourd'hui
Haut(e) -- | Bas -- ° F
--% Risque de précip.
Hier
Haut(e) -- | Bas -- ° F
Precip. -- pouce
8:02 AM 6:23 PM
Premier quartier, 58% visible
Pression 30.52 pouce
Visibilité 10.0 Miles terrestres
Nuages Ciel dégagé
Point de rosée 16 ° F
Humidité 41%
Précipitations 0.00 pouce
Profondeur de la couche neigeuse Non disponible.
UV 3 sur 12
Pollen .10 sur 12
Qualité de l'air Non disponible.
Flu Activity Non disponible.
METAR KYKN 311935Z AUTO 00000KT 10SM CLR 03/M09 A3052 RMK AO1

More Conditions Fewer Conditions

Pression 30.52 pouce
Visibilité 10.0 Miles terrestres
Nuages Ciel dégagé
Point de rosée 16 ° F
Humidité 41%
Précipitations 0.00 pouce
Profondeur de la couche neigeuse Non disponible.
UV 3 sur 12
Pollen .10 sur 12
Qualité de l'air Non disponible.
Flu Activity Non disponible.
METAR KYKN 311935Z AUTO 00000KT 10SM CLR 03/M09 A3052 RMK AO1

More Conditions Fewer Conditions

10-Day Weather Forecast

Almanac

Astronomie

Oct. 31, 2014 Lever Coucher
Temps réel
Crépuscule civil
Crépuscule nautique
Crépuscule astronomique
Lune
Durée de lumière visible
Longueur du jour
Tomorrow will be .
, % of the Moon is Illuminated

Extrêmes aujourd'hui

State Highs State Lows

Community

WunderPhotos

Upload Photos

1,766,711 Photos téléchargées !

WunderBlogs® & News

Nearby

Qualité de l'air

  Qualité de l'air Indice de la qualité de l'air Polluant
Not available.

Épaisseur de neige

Station Depth Altitude

Activité sismique

Ville Distance Mag. Time & Date
Minimum magnitude displayed is 2.5.

Températures des eaux côtières

Lieu Température

Stations météo à proximité